createdAt,value
2023-03-24T00:02:24.750Z,12.63
2023-03-24T00:04:53.525Z,12.63
2023-03-24T00:07:25.261Z,12.64
2023-03-24T00:09:51.865Z,12.62
2023-03-24T00:12:18.608Z,12.65
2023-03-24T00:14:48.250Z,12.68
2023-03-24T00:17:17.451Z,12.66
2023-03-24T00:19:45.231Z,12.72
2023-03-24T00:22:15.704Z,12.73
2023-03-24T00:24:46.220Z,12.72
2023-03-24T00:27:17.656Z,12.73
2023-03-24T00:29:44.510Z,12.73
2023-03-24T00:32:10.971Z,12.76
2023-03-24T00:34:38.595Z,12.84
2023-03-24T00:37:06.230Z,12.86
2023-03-24T00:39:33.009Z,12.92
2023-03-24T00:42:01.805Z,12.94
2023-03-24T00:44:28.458Z,12.93
2023-03-24T00:46:57.884Z,13.02
2023-03-24T00:49:48.196Z,13.06
2023-03-24T00:52:18.129Z,13.10
2023-03-24T00:54:45.992Z,13.13
2023-03-24T00:57:14.586Z,13.16
2023-03-24T00:59:49.003Z,13.11
2023-03-24T01:02:19.324Z,13.24
2023-03-24T01:04:47.243Z,13.27
2023-03-24T01:07:18.138Z,13.29
2023-03-24T01:09:51.829Z,13.30
2023-03-24T01:12:19.444Z,13.32
2023-03-24T01:14:46.374Z,13.27
2023-03-24T01:17:13.147Z,13.33
2023-03-24T01:19:40.753Z,13.43
2023-03-24T01:22:07.265Z,13.46
2023-03-24T01:24:33.752Z,13.46
2023-03-24T01:27:00.162Z,13.48
2023-03-24T01:29:26.650Z,13.34
2023-03-24T01:31:53.144Z,13.45
2023-03-24T01:34:19.741Z,13.42
2023-03-24T01:36:46.334Z,13.36
2023-03-24T01:39:12.822Z,13.29
2023-03-24T01:41:41.239Z,13.21
2023-03-24T01:44:28.909Z,13.19
2023-03-24T01:46:56.363Z,13.12
2023-03-24T01:49:25.388Z,13.07
2023-03-24T01:51:57.030Z,12.96
2023-03-24T01:54:40.584Z,12.99
2023-03-24T01:57:15.008Z,12.97
2023-03-24T01:59:44.249Z,12.92
2023-03-24T02:02:13.692Z,12.87
2023-03-24T02:04:43.807Z,12.78
2023-03-24T02:07:16.511Z,12.83
2023-03-24T02:09:43.046Z,12.79
2023-03-24T02:12:09.588Z,12.76
2023-03-24T02:14:36.329Z,12.68
2023-03-24T02:17:12.026Z,12.66
2023-03-24T02:20:02.489Z,12.62
2023-03-24T02:23:14.502Z,12.56
2023-03-24T02:26:19.234Z,12.48
2023-03-24T02:29:05.343Z,12.45
2023-03-24T02:31:43.903Z,12.43
2023-03-24T02:34:22.623Z,12.39
2023-03-24T02:37:21.189Z,12.37
2023-03-24T02:40:13.888Z,12.34
2023-03-24T02:43:11.320Z,12.32
2023-03-24T02:45:47.257Z,12.30
2023-03-24T02:48:36.684Z,12.29
2023-03-24T02:51:03.126Z,12.29
2023-03-24T02:53:58.886Z,12.28
2023-03-24T02:57:00.830Z,12.28
2023-03-24T02:59:37.455Z,12.28
2023-03-24T03:02:08.155Z,12.15
2023-03-24T03:04:39.854Z,12.26
2023-03-24T03:07:10.060Z,12.23
2023-03-24T03:09:41.110Z,12.26
2023-03-24T03:12:09.498Z,12.23
2023-03-24T03:14:40.140Z,12.25
2023-03-24T03:17:10.819Z,12.25
2023-03-24T03:19:43.769Z,12.18
2023-03-24T03:22:21.265Z,12.22
2023-03-24T03:24:53.131Z,12.22
2023-03-24T03:27:31.212Z,12.06
2023-03-24T03:30:02.786Z,12.16
2023-03-24T03:32:35.948Z,12.14
2023-03-24T03:35:17.144Z,12.07
2023-03-24T03:38:14.037Z,12.23
2023-03-24T03:40:55.607Z,12.19
2023-03-24T03:43:23.037Z,12.18
2023-03-24T03:45:49.554Z,12.12
2023-03-24T03:48:16.684Z,11.99
2023-03-24T03:50:43.179Z,12.05
2023-03-24T03:53:10.104Z,11.99
2023-03-24T03:55:36.838Z,11.99
2023-03-24T03:58:04.507Z,11.99
2023-03-24T04:00:31.389Z,11.96
2023-03-24T04:03:11.421Z,11.96
2023-03-24T04:06:04.056Z,11.91
2023-03-24T04:08:50.619Z,11.92
2023-03-24T04:11:36.853Z,11.95
2023-03-24T04:14:41.642Z,11.92
2023-03-24T04:17:33.572Z,11.97
2023-03-24T04:20:21.204Z,12.03
2023-03-24T04:23:09.338Z,12.09
2023-03-24T04:25:58.677Z,12.11
2023-03-24T04:28:27.711Z,12.13
2023-03-24T04:31:01.291Z,12.13
2023-03-24T04:33:42.443Z,12.18
2023-03-24T04:36:27.393Z,12.20
2023-03-24T04:38:54.945Z,12.29
2023-03-24T04:41:22.197Z,12.33
2023-03-24T04:43:48.951Z,12.26
2023-03-24T04:46:18.054Z,12.37
2023-03-24T04:48:48.072Z,12.21
2023-03-24T04:51:15.868Z,12.18
2023-03-24T04:53:42.376Z,12.29
2023-03-24T04:56:30.988Z,12.28
2023-03-24T04:58:58.738Z,12.26
2023-03-24T05:01:30.841Z,12.25
2023-03-24T05:03:58.391Z,12.23
2023-03-24T05:06:25.947Z,12.21
2023-03-24T05:08:52.619Z,12.19
2023-03-24T05:11:20.432Z,12.20
2023-03-24T05:13:47.567Z,12.21
2023-03-24T05:16:14.416Z,12.29
2023-03-24T05:18:41.480Z,12.29
2023-03-24T05:21:07.974Z,12.24
2023-03-24T05:23:34.436Z,12.38
2023-03-24T05:26:01.373Z,12.23
2023-03-24T05:28:27.931Z,12.41
2023-03-24T05:30:54.487Z,12.27
2023-03-24T05:33:21.379Z,12.29
2023-03-24T05:35:48.176Z,12.41
2023-03-24T05:38:15.020Z,12.47
2023-03-24T05:40:41.532Z,12.38
2023-03-24T05:43:08.393Z,12.50
2023-03-24T05:45:35.354Z,12.56
2023-03-24T05:48:01.915Z,12.48
2023-03-24T05:50:28.465Z,12.64
2023-03-24T05:52:54.825Z,12.66
2023-03-24T05:55:21.970Z,12.67
2023-03-24T05:57:48.429Z,12.70
2023-03-24T06:00:17.155Z,12.72
2023-03-24T06:02:44.695Z,12.73
2023-03-24T06:05:11.809Z,12.77
2023-03-24T06:07:40.155Z,12.77
2023-03-24T06:10:07.779Z,12.81
2023-03-24T06:12:34.241Z,12.86
2023-03-24T06:15:03.679Z,12.89
2023-03-24T06:17:30.792Z,12.98
2023-03-24T06:20:02.769Z,13.05
2023-03-24T06:22:30.263Z,13.10
2023-03-24T06:24:58.687Z,13.14
2023-03-24T06:27:30.061Z,13.10
2023-03-24T06:29:57.526Z,13.14
2023-03-24T06:32:24.447Z,13.13
2023-03-24T06:34:51.172Z,13.10
2023-03-24T06:37:17.925Z,13.07
2023-03-24T06:39:44.337Z,13.05
2023-03-24T06:42:10.838Z,13.04
2023-03-24T06:44:37.670Z,13.03
2023-03-24T06:47:04.606Z,12.99
2023-03-24T06:49:31.077Z,13.00
2023-03-24T06:51:57.463Z,12.97
2023-03-24T06:54:23.920Z,12.97
2023-03-24T06:56:50.409Z,12.97
2023-03-24T06:59:17.809Z,12.96
2023-03-24T07:01:44.297Z,12.61
2023-03-24T07:04:11.273Z,12.93
2023-03-24T07:06:50.913Z,12.85
2023-03-24T07:09:25.973Z,12.86
2023-03-24T07:11:52.365Z,12.89
2023-03-24T07:14:19.076Z,12.86
2023-03-24T07:16:45.639Z,12.89
2023-03-24T07:19:12.326Z,12.91
2023-03-24T07:21:38.733Z,12.96
2023-03-24T07:24:05.423Z,12.99
2023-03-24T07:26:31.872Z,13.04
2023-03-24T07:28:58.274Z,13.05
2023-03-24T07:31:24.841Z,13.06
2023-03-24T07:33:51.360Z,13.11
2023-03-24T07:36:17.846Z,13.14
2023-03-24T07:38:44.306Z,13.18
2023-03-24T07:41:10.801Z,13.23
2023-03-24T07:43:37.238Z,13.37
2023-03-24T07:46:03.774Z,13.58
2023-03-24T07:48:30.823Z,13.69
2023-03-24T07:50:57.341Z,14.01
2023-03-24T07:53:23.995Z,14.07
2023-03-24T07:55:50.672Z,14.08
2023-03-24T07:58:17.160Z,14.05
2023-03-24T08:00:44.714Z,13.93
2023-03-24T08:03:15.392Z,13.90
2023-03-24T08:05:43.511Z,14.02
2023-03-24T08:08:10.560Z,14.07
2023-03-24T08:10:37.182Z,14.20
2023-03-24T08:13:03.927Z,14.35
2023-03-24T08:15:30.437Z,14.43
2023-03-24T08:17:57.113Z,14.51
2023-03-24T08:20:26.960Z,14.79
2023-03-24T08:22:54.549Z,15.02
2023-03-24T08:25:23.698Z,15.06
2023-03-24T08:27:50.413Z,15.19
2023-03-24T08:30:20.085Z,15.13
2023-03-24T08:33:00.836Z,15.12
2023-03-24T08:35:32.611Z,15.13
2023-03-24T08:38:00.993Z,15.20
2023-03-24T08:40:29.180Z,15.20
2023-03-24T08:42:59.587Z,15.24
2023-03-24T08:45:29.841Z,15.25
2023-03-24T08:47:58.620Z,15.26
2023-03-24T08:50:28.150Z,15.26
2023-03-24T08:52:57.731Z,15.26
2023-03-24T08:55:24.883Z,15.34
2023-03-24T08:57:51.721Z,15.48
2023-03-24T09:00:19.394Z,15.55
2023-03-24T09:02:51.914Z,15.60
2023-03-24T09:05:29.835Z,15.62
2023-03-24T09:08:03.590Z,15.62
2023-03-24T09:10:30.123Z,15.63
2023-03-24T09:12:56.581Z,15.63
2023-03-24T09:15:23.189Z,15.66
2023-03-24T09:17:49.700Z,15.69
2023-03-24T09:20:16.738Z,15.72
2023-03-24T09:22:45.169Z,15.74
2023-03-24T09:25:14.444Z,15.74
2023-03-24T09:27:41.268Z,15.75
2023-03-24T09:30:09.517Z,15.79
2023-03-24T09:32:37.062Z,15.79
2023-03-24T09:35:03.871Z,15.79
2023-03-24T09:37:31.569Z,15.62
2023-03-24T09:39:59.917Z,15.79
2023-03-24T09:42:29.162Z,15.79
2023-03-24T09:44:58.157Z,15.79
2023-03-24T09:47:32.055Z,15.80
2023-03-24T09:50:02.957Z,15.77
2023-03-24T09:52:35.645Z,15.78
2023-03-24T09:55:03.038Z,15.72
2023-03-24T09:57:40.900Z,15.81
2023-03-24T10:00:19.415Z,15.85
2023-03-24T10:02:46.290Z,15.94
2023-03-24T10:05:15.008Z,16.01
2023-03-24T10:07:57.039Z,16.14
2023-03-24T10:10:56.620Z,16.25
2023-03-24T10:13:47.655Z,16.24
2023-03-24T10:16:25.211Z,16.20
2023-03-24T10:19:19.772Z,16.16
2023-03-24T10:22:04.338Z,15.55
2023-03-24T10:24:44.592Z,15.10
2023-03-24T10:27:13.917Z,14.68
2023-03-24T10:29:41.156Z,14.28
2023-03-24T10:32:22.129Z,14.09
2023-03-24T10:34:54.002Z,13.89
2023-03-24T10:37:21.075Z,13.72
2023-03-24T10:39:49.605Z,13.59
2023-03-24T10:42:21.699Z,13.24
2023-03-24T10:44:50.178Z,13.14
2023-03-24T10:47:19.443Z,13.05
2023-03-24T10:50:12.184Z,12.95
2023-03-24T10:52:46.797Z,12.86
2023-03-24T10:55:19.335Z,12.72
2023-03-24T10:57:57.624Z,12.63
2023-03-24T11:00:29.554Z,12.68
2023-03-24T11:02:59.434Z,12.58
2023-03-24T11:05:31.764Z,12.48
2023-03-24T11:08:21.426Z,12.38
2023-03-24T11:10:47.869Z,12.26
2023-03-24T11:13:28.171Z,12.18
2023-03-24T11:16:15.225Z,12.11
2023-03-24T11:19:05.997Z,12.08
2023-03-24T11:21:36.362Z,12.07
2023-03-24T11:24:09.048Z,12.06
2023-03-24T11:26:37.322Z,12.05
2023-03-24T11:29:15.984Z,11.96
2023-03-24T11:31:42.792Z,11.98
2023-03-24T11:34:41.949Z,12.03
2023-03-24T11:37:12.391Z,11.89
2023-03-24T11:39:38.940Z,12.07
2023-03-24T11:42:05.462Z,12.06
2023-03-24T11:44:37.951Z,12.05
2023-03-24T11:47:17.086Z,12.07
2023-03-24T11:49:47.086Z,12.12
2023-03-24T11:52:21.866Z,12.15
2023-03-24T11:54:48.317Z,12.17
2023-03-24T11:57:20.966Z,12.13
2023-03-24T12:00:00.168Z,12.18
2023-03-24T12:03:06.233Z,12.19
2023-03-24T12:05:45.044Z,12.17
2023-03-24T12:08:31.771Z,12.14
2023-03-24T12:11:19.708Z,12.25
2023-03-24T12:13:51.615Z,12.30
2023-03-24T12:16:43.137Z,12.32
2023-03-24T12:19:39.100Z,12.23
2023-03-24T12:22:42.878Z,12.18
2023-03-24T12:25:24.505Z,12.04
2023-03-24T12:28:00.078Z,11.97
2023-03-24T12:30:34.906Z,11.91
2023-03-24T12:33:11.468Z,11.87
2023-03-24T12:36:04.449Z,11.84
2023-03-24T12:38:33.867Z,11.84
2023-03-24T12:41:10.988Z,11.84
2023-03-24T12:43:55.709Z,11.84
2023-03-24T12:46:47.733Z,11.70
2023-03-24T12:49:21.025Z,11.76
2023-03-24T12:52:03.439Z,11.76
2023-03-24T12:54:53.522Z,11.81
2023-03-24T12:57:23.255Z,11.90
2023-03-24T13:00:13.406Z,12.00
2023-03-24T13:02:44.403Z,12.06
2023-03-24T13:05:55.522Z,12.16
2023-03-24T13:08:29.296Z,12.25
2023-03-24T13:11:05.286Z,12.28
2023-03-24T13:13:41.300Z,12.44
2023-03-24T13:16:17.682Z,12.53
2023-03-24T13:18:47.143Z,12.52
2023-03-24T13:21:17.645Z,12.33
2023-03-24T13:23:56.672Z,12.46
2023-03-24T13:26:39.718Z,12.43
2023-03-24T13:29:38.499Z,12.39
2023-03-24T13:32:25.899Z,12.35
2023-03-24T13:35:01.263Z,12.34
2023-03-24T13:37:34.098Z,12.36
2023-03-24T13:40:01.947Z,12.37
2023-03-24T13:43:14.702Z,12.40
2023-03-24T13:45:51.889Z,12.50
2023-03-24T13:48:41.835Z,12.62
2023-03-24T13:51:19.888Z,12.74
2023-03-24T13:53:55.710Z,13.00
2023-03-24T13:56:34.118Z,13.11
2023-03-24T13:59:24.896Z,13.13
2023-03-24T14:02:10.103Z,13.13
2023-03-24T14:04:55.185Z,13.12
2023-03-24T14:07:39.910Z,13.09
2023-03-24T14:10:20.679Z,13.04
2023-03-24T14:12:59.343Z,13.09
2023-03-24T14:15:28.796Z,13.10
2023-03-24T14:17:56.894Z,13.22
2023-03-24T14:20:58.395Z,13.24
2023-03-24T14:23:48.110Z,13.17
2023-03-24T14:26:20.679Z,13.17
2023-03-24T14:28:48.677Z,13.23
2023-03-24T14:31:18.422Z,13.30
2023-03-24T14:33:54.213Z,13.36
2023-03-24T14:36:39.350Z,13.32
2023-03-24T14:39:35.150Z,13.29
2023-03-24T14:42:01.765Z,13.33
2023-03-24T14:44:47.154Z,13.35
2023-03-24T14:47:16.818Z,13.34
2023-03-24T14:49:44.873Z,13.30
2023-03-24T14:52:13.665Z,13.25
2023-03-24T14:54:48.554Z,13.22
2023-03-24T14:57:20.487Z,13.22
2023-03-24T14:59:58.636Z,13.26
2023-03-24T15:02:34.110Z,13.29
2023-03-24T15:05:16.496Z,13.34
2023-03-24T15:07:44.414Z,13.36
2023-03-24T15:10:18.984Z,13.46
2023-03-24T15:12:47.107Z,13.48
2023-03-24T15:15:18.977Z,13.46
2023-03-24T15:17:46.908Z,13.54
2023-03-24T15:20:36.198Z,13.55
2023-03-24T15:23:20.019Z,13.56
2023-03-24T15:25:49.706Z,13.55
2023-03-24T15:28:26.578Z,13.53
2023-03-24T15:30:53.855Z,13.51
2023-03-24T15:33:21.779Z,13.44
2023-03-24T15:35:59.498Z,13.45
2023-03-24T15:38:33.086Z,13.34
2023-03-24T15:41:10.245Z,13.49
2023-03-24T15:43:44.585Z,13.53
2023-03-24T15:46:22.414Z,13.57
2023-03-24T15:48:49.062Z,13.50
2023-03-24T15:51:15.530Z,13.54
2023-03-24T15:53:56.598Z,13.55
2023-03-24T15:56:36.286Z,13.58
2023-03-24T15:59:12.043Z,13.59
2023-03-24T16:01:39.232Z,13.61
2023-03-24T16:04:07.955Z,13.49
2023-03-24T16:06:35.591Z,13.66
2023-03-24T16:09:06.698Z,13.68
2023-03-24T16:11:33.118Z,13.67
2023-03-24T16:14:13.190Z,13.65
2023-03-24T16:16:39.986Z,13.63
2023-03-24T16:19:06.495Z,13.58
2023-03-24T16:21:33.008Z,13.55
2023-03-24T16:24:00.555Z,13.50
2023-03-24T16:26:29.425Z,13.42
2023-03-24T16:29:01.731Z,13.35
2023-03-24T16:31:30.972Z,13.31
2023-03-24T16:33:58.234Z,13.29
2023-03-24T16:36:28.005Z,13.10
2023-03-24T16:38:56.182Z,13.16
2023-03-24T16:41:23.238Z,13.17
2023-03-24T16:43:50.309Z,13.19
2023-03-24T16:46:20.872Z,13.19
2023-03-24T16:48:47.449Z,13.21
2023-03-24T16:51:15.762Z,13.09
2023-03-24T16:53:43.344Z,13.19
2023-03-24T16:56:13.226Z,13.18
2023-03-24T16:58:39.681Z,13.21
2023-03-24T17:01:27.224Z,13.18
2023-03-24T17:03:59.027Z,13.12
2023-03-24T17:06:27.180Z,13.12
2023-03-24T17:08:53.785Z,13.11
2023-03-24T17:11:26.014Z,13.04
2023-03-24T17:13:53.963Z,12.92
2023-03-24T17:16:20.600Z,12.99
2023-03-24T17:18:47.061Z,12.93
2023-03-24T17:21:15.859Z,12.85
2023-03-24T17:23:49.480Z,12.79
2023-03-24T17:26:16.871Z,12.59
2023-03-24T17:28:43.912Z,12.60
2023-03-24T17:31:10.823Z,12.57
2023-03-24T17:33:37.343Z,12.48
2023-03-24T17:36:04.302Z,12.35
2023-03-24T17:38:30.808Z,12.27
2023-03-24T17:41:01.799Z,12.19
2023-03-24T17:43:28.395Z,12.03
2023-03-24T17:45:59.345Z,11.87
2023-03-24T17:48:26.485Z,12.04
2023-03-24T17:50:53.700Z,11.97
2023-03-24T17:53:26.537Z,11.93
2023-03-24T17:55:54.614Z,11.82
2023-03-24T17:58:21.687Z,11.68
2023-03-24T18:00:49.151Z,11.69
2023-03-24T18:03:16.548Z,11.64
2023-03-24T18:05:43.754Z,11.56
2023-03-24T18:08:12.293Z,11.49
2023-03-24T18:10:39.242Z,11.44
2023-03-24T18:13:06.754Z,11.44
2023-03-24T18:15:34.641Z,11.35
2023-03-24T18:18:01.353Z,11.23
2023-03-24T18:20:27.857Z,11.23
2023-03-24T18:22:54.408Z,11.18
2023-03-24T18:25:21.044Z,11.05
2023-03-24T18:27:47.633Z,11.10
2023-03-24T18:30:14.367Z,11.05
2023-03-24T18:32:40.799Z,10.98
2023-03-24T18:35:09.942Z,10.94
2023-03-24T18:37:36.470Z,10.89
2023-03-24T18:40:07.137Z,10.76
2023-03-24T18:42:33.792Z,10.72
2023-03-24T18:45:00.270Z,10.74
2023-03-24T18:47:26.671Z,10.68
2023-03-24T18:49:53.048Z,10.63
2023-03-24T18:52:19.456Z,10.50
2023-03-24T18:54:46.252Z,10.62
2023-03-24T18:57:13.071Z,10.61
2023-03-24T18:59:39.609Z,10.57
2023-03-24T19:02:06.259Z,10.59
2023-03-24T19:04:32.878Z,10.55
2023-03-24T19:07:00.624Z,10.54
2023-03-24T19:09:27.262Z,10.54
2023-03-24T19:11:54.592Z,10.51
2023-03-24T19:14:21.128Z,10.48
2023-03-24T19:16:47.595Z,10.41
2023-03-24T19:19:14.239Z,10.40
2023-03-24T19:21:40.876Z,10.26
2023-03-24T19:24:07.704Z,10.26
2023-03-24T19:26:34.257Z,10.29
2023-03-24T19:29:01.207Z,10.25
2023-03-24T19:31:27.774Z,10.24
2023-03-24T19:33:55.095Z,10.22
2023-03-24T19:36:21.653Z,10.14
2023-03-24T19:38:48.206Z,10.13
2023-03-24T19:41:15.920Z,10.10
2023-03-24T19:43:42.397Z,10.06
2023-03-24T19:46:09.208Z,9.99
2023-03-24T19:48:35.808Z,9.98
2023-03-24T19:51:02.582Z,9.92
2023-03-24T19:53:29.459Z,9.86
2023-03-24T19:55:57.655Z,9.74
2023-03-24T19:58:24.205Z,9.93
2023-03-24T20:00:51.972Z,9.97
2023-03-24T20:03:18.968Z,9.99
2023-03-24T20:05:45.597Z,10.01
2023-03-24T20:08:12.125Z,10.04
2023-03-24T20:10:40.096Z,10.08
2023-03-24T20:13:07.693Z,10.14
2023-03-24T20:15:34.149Z,10.15
2023-03-24T20:18:00.881Z,10.20
2023-03-24T20:20:27.784Z,10.14
2023-03-24T20:22:54.354Z,10.24
2023-03-24T20:25:22.275Z,10.33
2023-03-24T20:27:48.947Z,10.33
2023-03-24T20:30:17.123Z,10.32
2023-03-24T20:32:43.718Z,10.29
2023-03-24T20:35:10.859Z,10.28
2023-03-24T20:37:37.812Z,10.13
2023-03-24T20:40:09.386Z,10.15
2023-03-24T20:42:36.221Z,10.19
2023-03-24T20:45:02.949Z,10.18
2023-03-24T20:47:29.426Z,10.09
2023-03-24T20:49:55.950Z,10.22
2023-03-24T20:52:23.346Z,10.15
2023-03-24T20:54:51.359Z,10.19
2023-03-24T20:57:19.120Z,10.18
2023-03-24T20:59:48.047Z,10.18
2023-03-24T21:02:15.517Z,10.22
2023-03-24T21:04:42.206Z,10.23
2023-03-24T21:07:08.776Z,10.26
2023-03-24T21:09:35.264Z,10.26
2023-03-24T21:12:03.044Z,10.30
2023-03-24T21:14:30.148Z,10.35
2023-03-24T21:16:56.876Z,10.23
2023-03-24T21:19:24.028Z,10.44
2023-03-24T21:21:50.750Z,10.49
2023-03-24T21:24:17.829Z,10.44
2023-03-24T21:26:46.260Z,10.57
2023-03-24T21:29:13.122Z,10.66
2023-03-24T21:31:41.689Z,10.60
2023-03-24T21:34:08.630Z,10.70
2023-03-24T21:36:38.115Z,10.67
2023-03-24T21:39:06.889Z,10.67
2023-03-24T21:41:33.536Z,10.63
2023-03-24T21:44:00.494Z,10.57
2023-03-24T21:46:27.863Z,10.62
2023-03-24T21:48:55.620Z,10.53
2023-03-24T21:51:30.773Z,10.57
2023-03-24T21:54:03.454Z,10.57
2023-03-24T21:56:34.204Z,10.55
2023-03-24T21:59:01.024Z,10.55
2023-03-24T22:01:27.603Z,10.55
2023-03-24T22:03:54.542Z,10.53
2023-03-24T22:06:24.334Z,10.48
2023-03-24T22:08:52.990Z,10.44
2023-03-24T22:11:19.737Z,10.36
2023-03-24T22:13:46.648Z,10.30
2023-03-24T22:16:13.675Z,10.22
2023-03-24T22:18:40.404Z,10.20
2023-03-24T22:21:08.766Z,10.20
2023-03-24T22:23:39.133Z,10.18
2023-03-24T22:26:11.760Z,10.14
2023-03-24T22:28:39.395Z,10.10
2023-03-24T22:31:11.684Z,10.08
2023-03-24T22:33:38.692Z,9.97
2023-03-24T22:36:06.266Z,9.85
2023-03-24T22:38:34.537Z,9.75
2023-03-24T22:41:08.159Z,9.78
2023-03-24T22:43:35.803Z,9.73
2023-03-24T22:46:02.811Z,9.65
2023-03-24T22:48:29.316Z,9.48
2023-03-24T22:50:56.072Z,9.57
2023-03-24T22:53:22.902Z,9.51
2023-03-24T22:55:49.627Z,9.43
2023-03-24T22:58:16.797Z,9.44
2023-03-24T23:00:45.416Z,9.42
2023-03-24T23:03:12.134Z,9.22
2023-03-24T23:05:47.986Z,9.28
2023-03-24T23:08:15.649Z,9.17
2023-03-24T23:10:46.844Z,9.19
2023-03-24T23:13:13.776Z,9.00
2023-03-24T23:15:42.422Z,9.09
2023-03-24T23:18:09.204Z,9.09
2023-03-24T23:20:36.363Z,9.06
2023-03-24T23:23:05.881Z,9.05
2023-03-24T23:25:34.679Z,9.00
2023-03-24T23:28:01.327Z,8.95
2023-03-24T23:30:27.727Z,8.93
2023-03-24T23:32:54.254Z,8.89
2023-03-24T23:35:20.797Z,8.87
2023-03-24T23:37:48.293Z,8.83
2023-03-24T23:40:15.902Z,8.77
2023-03-24T23:42:44.934Z,8.80
2023-03-24T23:45:14.520Z,8.79
2023-03-24T23:47:42.788Z,8.81
2023-03-24T23:50:09.758Z,8.85
2023-03-24T23:52:36.229Z,8.93
2023-03-24T23:55:02.988Z,8.96
2023-03-24T23:57:29.467Z,8.98
2023-03-24T23:59:56.006Z,8.98
